This is the latest recevied weather packets stored in our database for station/object OK3MS-5. If no packets are shown the sender has not sent any weather packets the latest 10 day(s).
| Time | Temp. | Humidity | Pressure | Rain* | Wind** | Luminosity | Snow |
|---|---|---|---|---|---|---|---|
| 1787473803 | 17.78° C | 65% | 1021.3 hPa | 0 mm | - | 515 W/m² | - |
| 1787473504 | 17.22° C | 65% | 1021.5 hPa | 0 mm | - | 501 W/m² | - |
| 1787473204 | 16.67° C | 69% | 1021.6 hPa | 0 mm | - | 485 W/m² | - |
| 1787472904 | 16.11° C | 71% | 1021.6 hPa | 0 mm | - | 474 W/m² | - |
| 1787472604 | 16.67° C | 70% | 1021.6 hPa | 0 mm | - | 463 W/m² | - |
| 1787472305 | 16.11° C | 71% | 1021.6 hPa | 0 mm | - | 416 W/m² | - |
| 1787472004 | 16.11° C | 73% | 1021.6 hPa | 0 mm | - | 435 W/m² | - |
| 1787471703 | 16.11° C | 72% | 1021.6 hPa | 0 mm | - | 424 W/m² | - |
| 1787471403 | 15.56° C | 73% | 1021.7 hPa | 0 mm | - | 409 W/m² | - |
| 1787471105 | 16.11° C | 72% | 1021.6 hPa | 0 mm | - | 396 W/m² | - |
| 1787470803 | 16.11° C | 74% | 1021.5 hPa | 0 mm | - | 380 W/m² | - |
| 1787470504 | 15.56° C | 74% | 1021.6 hPa | 0 mm | - | 368 W/m² | - |
| 1787470204 | 15.56° C | 76% | 1021.7 hPa | 0 mm | - | 351 W/m² | - |
| 1787469904 | 15° C | 79% | 1021.7 hPa | 0 mm | - | 337 W/m² | - |
| 1787469603 | 15.56° C | 76% | 1021.7 hPa | 0 mm | - | 322 W/m² | - |
| 1787469306 | 15° C | 77% | 1021.9 hPa | 0 mm | - | 309 W/m² | - |
| 1787469003 | 14.44° C | 80% | 1022 hPa | 0 mm | - | 293 W/m² | - |
| 1787468704 | 13.89° C | 83% | 1022.1 hPa | 0 mm | - | 276 W/m² | - |
| 1787468403 | 13.89° C | 82% | 1022.1 hPa | 0 mm | - | 259 W/m² | - |
| 1787468103 | 13.33° C | 83% | 1022.1 hPa | 0 mm | - | 243 W/m² | - |
| 1787467802 | 13.33° C | 84% | 1022.2 hPa | 0 mm | - | 230 W/m² | - |
| 1787467502 | 13.33° C | 85% | 1022.3 hPa | 0 mm | - | 210 W/m² | - |
| 1787467203 | 13.33° C | 84% | 1022.2 hPa | 0 mm | - | 191 W/m² | - |
| 1787466906 | 12.78° C | 85% | 1022.3 hPa | 0 mm | - | 173 W/m² | - |
| 1787466603 | 12.78° C | 87% | 1022.4 hPa | 0 mm | - | 145 W/m² | - |
* Rain latest hour (hover to see other rain measurements)
** Current wind speed in m/s (hover to see current wind gust speed)